Main page
METAR-TAF:

METAR-TAF

Airports :

Hohenfels, Germany

latitude: 49-13N, longitude: 011-50E, elevation: 442 m

Current weather observation

The report was made 15 minutes ago, at 22:47 UTC
Wind 4 kt from the East/Southeast
Temperature 3°C
Humidity 93%
Pressure 1010 hPa
Visibility: 1800 m
Overcast at a height of 200 ft
mist

METAR: ETIH 212247Z AUTO 12004KT 1800 BR OVC002 03/02 A2983 RMK AO2 SLP118 $

Time: 00:02 (23:02 UTC)


TAF: missing

Weather observations and forecasts of more than 4000 airports (METAR and TAF reports).

The available stations are represented by yellow and red dots on the map.

Hover mouse over dot to see the name of the station.

Then click to see weather observations and forecasts.

To change the map : click on the green buttons with a black cross to zoom in, on the green button with a dash to zoom out, or on the green arrows for adjacent maps.


METAR-TAF: